This is the latest recevied weather packets stored in our database for station/object N0SWP-3. If no packets are shown the sender has not sent any weather packets the latest 10 day(s).
| Time | Temp. | Humidity | Pressure | Rain* | Wind** | Luminosity | Snow |
|---|---|---|---|---|---|---|---|
| 1777507923 | 15.56° C | 55% | 1018.3 hPa | 0 mm | - | - | - |
| 1777506303 | 16.11° C | 51% | 1018 hPa | 0 mm | - | - | - |
| 1777501984 | 16.67° C | 51% | 1018.1 hPa | 0 mm | - | - | - |
| 1777499823 | 16.67° C | 52% | 1018.2 hPa | 0 mm | - | - | - |
| 1777499058 | 16.67° C | 49% | 1018.2 hPa | 0 mm | - | - | - |
| 1777498743 | 17.22° C | 48% | 1018.2 hPa | 0 mm | - | - | - |
| 1777497483 | 16.67° C | 52% | 1018.5 hPa | 0 mm | - | - | - |
| 1777495503 | 16.11° C | 53% | 1018.9 hPa | 0 mm | - | - | - |
| 1777494603 | 16.67° C | 51% | 1019.2 hPa | 0 mm | - | - | - |
| 1777493343 | 16.67° C | 51% | 1019.5 hPa | 0 mm | - | - | - |
| 1777492624 | 17.22° C | 49% | 1019.6 hPa | 0 mm | - | - | - |
| 1777490237 | 16.67° C | 54% | 1020 hPa | 0 mm | - | - | - |
| 1777489203 | 16.11° C | 54% | 1020.2 hPa | 0 mm | - | - | - |
| 1777486864 | 16.11° C | 58% | 1020.4 hPa | 0 mm | - | - | - |
| 1777486503 | 15.56° C | 58% | 1020.6 hPa | 0 mm | - | - | - |
| 1777486143 | 15.56° C | 59% | 1020.6 hPa | 0 mm | - | - | - |
| 1777485965 | 15.56° C | 59% | 1020.6 hPa | 0 mm | - | - | - |
| 1777485244 | 16.11° C | 56% | 1020.9 hPa | 0 mm | - | - | - |
| 1777484884 | 15.56° C | 59% | 1021 hPa | 0 mm | - | - | - |
| 1777483804 | 14.44° C | 61% | 1021.5 hPa | 0 mm | - | - | - |
| 1777483623 | 14.44° C | 60% | 1021.5 hPa | 0 mm | - | - | - |
| 1777482317 | 13.89° C | 62% | 1021.7 hPa | 0 mm | - | - | - |
| 1777480517 | 13.33° C | 63% | 1021.8 hPa | 0 mm | - | - | - |
| 1777479663 | 13.33° C | 66% | 1021.7 hPa | 0 mm | - | - | - |
| 1777477684 | 12.78° C | 64% | 1021.4 hPa | 0 mm | - | - | - |
* Rain latest hour (hover to see other rain measurements)
** Current wind speed in m/s (hover to see current wind gust speed)